Simsboro, Texas
Current Conditions -  °F | °C
As of 2:35 AM on Saturday 29 Nov 2014 (Local Time) from KLXY Reporting Station
Clear Clear  
Wind Chill: 57°   Ceiling: Unl
Heat Index: 57°   Visibility: 10mi
Dew Point: 53°   Wind: 14mph
Humidity: 87%   Direction: 190°S
Pressure: 30.03"   Gusts: NA
Location:  31.6463°N, 96.2786°W
Report Text: KLXY 290835Z AUTO 19012KT 10SM CLR 14/12 A3003 RMK AO2 T01370115
Loading
Personal Weather Stations






























Interactive Weather Map New forecast layout! Learn more

10-Day Weather Forecast

Advertisements
Track Severe Weather on mobile